sensor_id;sensor_type;location;lat;lon;timestamp;P1;durP1;ratioP1;P2;durP2;ratioP2
5054;SDS011;13829;48.990;8.346;2023-04-25T00:00:04;4.63;;;3.70;;
5054;SDS011;13829;48.990;8.346;2023-04-25T00:02:34;3.57;;;3.20;;
5054;SDS011;13829;48.990;8.346;2023-04-25T00:05:01;4.43;;;3.30;;
5054;SDS011;13829;48.990;8.346;2023-04-25T00:07:29;4.17;;;3.60;;
5054;SDS011;13829;48.990;8.346;2023-04-25T00:09:57;3.83;;;3.23;;
5054;SDS011;13829;48.990;8.346;2023-04-25T00:12:24;4.77;;;3.30;;
5054;SDS011;13829;48.990;8.346;2023-04-25T00:14:54;3.83;;;3.33;;
5054;SDS011;13829;48.990;8.346;2023-04-25T00:17:23;4.43;;;2.90;;
5054;SDS011;13829;48.990;8.346;2023-04-25T00:19:51;4.13;;;3.70;;
5054;SDS011;13829;48.990;8.346;2023-04-25T00:22:18;4.23;;;3.80;;
5054;SDS011;13829;48.990;8.346;2023-04-25T00:24:46;5.87;;;3.50;;
5054;SDS011;13829;48.990;8.346;2023-04-25T00:27:15;6.90;;;4.30;;
5054;SDS011;13829;48.990;8.346;2023-04-25T00:29:42;4.57;;;4.10;;
5054;SDS011;13829;48.990;8.346;2023-04-25T00:32:12;4.93;;;3.70;;
5054;SDS011;13829;48.990;8.346;2023-04-25T00:34:44;3.70;;;3.40;;
5054;SDS011;13829;48.990;8.346;2023-04-25T00:37:11;4.00;;;3.60;;
5054;SDS011;13829;48.990;8.346;2023-04-25T00:39:38;4.63;;;3.63;;
5054;SDS011;13829;48.990;8.346;2023-04-25T00:42:05;4.10;;;3.70;;
5054;SDS011;13829;48.990;8.346;2023-04-25T00:44:36;4.53;;;3.53;;
5054;SDS011;13829;48.990;8.346;2023-04-25T00:47:04;3.93;;;3.57;;
5054;SDS011;13829;48.990;8.346;2023-04-25T00:49:35;4.23;;;3.60;;
5054;SDS011;13829;48.990;8.346;2023-04-25T00:52:03;4.10;;;3.63;;
5054;SDS011;13829;48.990;8.346;2023-04-25T00:54:31;4.93;;;3.53;;
5054;SDS011;13829;48.990;8.346;2023-04-25T00:56:58;4.27;;;3.87;;
5054;SDS011;13829;48.990;8.346;2023-04-25T00:59:32;6.23;;;4.00;;
5054;SDS011;13829;48.990;8.346;2023-04-25T01:02:02;4.40;;;3.63;;
5054;SDS011;13829;48.990;8.346;2023-04-25T01:04:40;3.80;;;3.50;;
5054;SDS011;13829;48.990;8.346;2023-04-25T01:07:10;4.03;;;3.50;;
5054;SDS011;13829;48.990;8.346;2023-04-25T01:09:42;4.80;;;3.97;;
5054;SDS011;13829;48.990;8.346;2023-04-25T01:12:11;5.53;;;3.90;;
5054;SDS011;13829;48.990;8.346;2023-04-25T01:14:39;3.73;;;3.33;;
5054;SDS011;13829;48.990;8.346;2023-04-25T01:17:08;4.77;;;3.63;;
5054;SDS011;13829;48.990;8.346;2023-04-25T01:19:37;3.90;;;3.50;;
5054;SDS011;13829;48.990;8.346;2023-04-25T01:22:06;3.83;;;3.53;;
5054;SDS011;13829;48.990;8.346;2023-04-25T01:24:36;4.20;;;3.80;;
5054;SDS011;13829;48.990;8.346;2023-04-25T01:27:05;4.53;;;4.00;;
5054;SDS011;13829;48.990;8.346;2023-04-25T01:29:36;4.53;;;4.13;;
5054;SDS011;13829;48.990;8.346;2023-04-25T01:32:06;4.47;;;4.07;;
5054;SDS011;13829;48.990;8.346;2023-04-25T01:34:34;4.80;;;3.70;;
5054;SDS011;13829;48.990;8.346;2023-04-25T01:37:01;3.90;;;3.57;;
5054;SDS011;13829;48.990;8.346;2023-04-25T01:39:29;3.90;;;3.50;;
5054;SDS011;13829;48.990;8.346;2023-04-25T01:42:04;5.23;;;3.60;;
5054;SDS011;13829;48.990;8.346;2023-04-25T01:44:31;5.13;;;3.60;;
5054;SDS011;13829;48.990;8.346;2023-04-25T01:46:58;5.33;;;3.97;;
5054;SDS011;13829;48.990;8.346;2023-04-25T01:49:25;5.13;;;3.80;;
5054;SDS011;13829;48.990;8.346;2023-04-25T01:51:52;4.93;;;3.73;;
5054;SDS011;13829;48.990;8.346;2023-04-25T01:54:22;5.17;;;3.93;;
5054;SDS011;13829;48.990;8.346;2023-04-25T01:56:51;4.97;;;4.00;;
5054;SDS011;13829;48.990;8.346;2023-04-25T01:59:26;6.10;;;3.97;;
5054;SDS011;13829;48.990;8.346;2023-04-25T02:01:59;4.37;;;3.67;;
5054;SDS011;13829;48.990;8.346;2023-04-25T02:04:31;4.33;;;3.70;;
5054;SDS011;13829;48.990;8.346;2023-04-25T02:06:59;4.60;;;3.70;;
5054;SDS011;13829;48.990;8.346;2023-04-25T02:09:26;4.67;;;3.80;;
5054;SDS011;13829;48.990;8.346;2023-04-25T02:11:55;4.17;;;3.77;;
5054;SDS011;13829;48.990;8.346;2023-04-25T02:14:28;4.77;;;4.30;;
5054;SDS011;13829;48.990;8.346;2023-04-25T02:16:55;5.13;;;3.77;;
5054;SDS011;13829;48.990;8.346;2023-04-25T02:19:29;4.33;;;3.80;;
5054;SDS011;13829;48.990;8.346;2023-04-25T02:21:56;5.03;;;3.70;;
5054;SDS011;13829;48.990;8.346;2023-04-25T02:24:23;4.50;;;4.07;;
5054;SDS011;13829;48.990;8.346;2023-04-25T02:26:50;4.43;;;4.03;;
5054;SDS011;13829;48.990;8.346;2023-04-25T02:29:24;9.00;;;4.37;;
5054;SDS011;13829;48.990;8.346;2023-04-25T02:31:51;4.80;;;4.30;;
5054;SDS011;13829;48.990;8.346;2023-04-25T02:34:21;5.03;;;4.07;;
5054;SDS011;13829;48.990;8.346;2023-04-25T02:36:49;5.17;;;3.93;;
5054;SDS011;13829;48.990;8.346;2023-04-25T02:39:16;5.03;;;3.77;;
5054;SDS011;13829;48.990;8.346;2023-04-25T02:41:47;4.27;;;3.87;;
5054;SDS011;13829;48.990;8.346;2023-04-25T02:44:14;4.97;;;4.10;;
5054;SDS011;13829;48.990;8.346;2023-04-25T02:46:47;4.67;;;4.20;;
5054;SDS011;13829;48.990;8.346;2023-04-25T02:49:17;4.87;;;3.90;;
5054;SDS011;13829;48.990;8.346;2023-04-25T02:51:44;4.40;;;3.80;;
5054;SDS011;13829;48.990;8.346;2023-04-25T02:54:14;4.80;;;4.07;;
5054;SDS011;13829;48.990;8.346;2023-04-25T02:56:42;6.57;;;3.80;;
5054;SDS011;13829;48.990;8.346;2023-04-25T02:59:09;4.47;;;4.07;;
5054;SDS011;13829;48.990;8.346;2023-04-25T03:01:36;5.03;;;4.37;;
5054;SDS011;13829;48.990;8.346;2023-04-25T03:04:05;4.20;;;3.80;;
5054;SDS011;13829;48.990;8.346;2023-04-25T03:06:32;5.23;;;3.90;;
5054;SDS011;13829;48.990;8.346;2023-04-25T03:08:59;4.37;;;3.53;;
5054;SDS011;13829;48.990;8.346;2023-04-25T03:11:25;4.33;;;3.93;;
5054;SDS011;13829;48.990;8.346;2023-04-25T03:13:52;4.27;;;3.80;;
5054;SDS011;13829;48.990;8.346;2023-04-25T03:16:19;6.43;;;4.30;;
5054;SDS011;13829;48.990;8.346;2023-04-25T03:18:50;4.37;;;3.97;;
5054;SDS011;13829;48.990;8.346;2023-04-25T03:21:18;4.20;;;3.80;;
5054;SDS011;13829;48.990;8.346;2023-04-25T03:23:45;6.27;;;4.30;;
5054;SDS011;13829;48.990;8.346;2023-04-25T03:26:12;4.00;;;3.60;;
5054;SDS011;13829;48.990;8.346;2023-04-25T03:28:39;4.33;;;3.93;;
5054;SDS011;13829;48.990;8.346;2023-04-25T03:31:06;4.00;;;3.60;;
5054;SDS011;13829;48.990;8.346;2023-04-25T03:33:33;5.83;;;4.00;;
5054;SDS011;13829;48.990;8.346;2023-04-25T03:36:00;5.30;;;4.23;;
5054;SDS011;13829;48.990;8.346;2023-04-25T03:38:28;4.57;;;4.17;;
5054;SDS011;13829;48.990;8.346;2023-04-25T03:40:55;4.40;;;4.00;;
5054;SDS011;13829;48.990;8.346;2023-04-25T03:43:22;5.27;;;4.13;;
5054;SDS011;13829;48.990;8.346;2023-04-25T03:45:49;6.33;;;3.93;;
5054;SDS011;13829;48.990;8.346;2023-04-25T03:48:17;4.30;;;3.90;;
5054;SDS011;13829;48.990;8.346;2023-04-25T03:50:46;5.20;;;4.33;;
5054;SDS011;13829;48.990;8.346;2023-04-25T03:53:13;4.37;;;3.97;;
5054;SDS011;13829;48.990;8.346;2023-04-25T03:55:41;6.60;;;4.17;;
5054;SDS011;13829;48.990;8.346;2023-04-25T03:58:08;4.00;;;3.63;;
5054;SDS011;13829;48.990;8.346;2023-04-25T04:00:35;4.30;;;3.77;;
5054;SDS011;13829;48.990;8.346;2023-04-25T04:03:02;4.70;;;3.97;;
5054;SDS011;13829;48.990;8.346;2023-04-25T04:05:29;4.70;;;4.10;;
5054;SDS011;13829;48.990;8.346;2023-04-25T04:07:57;5.83;;;4.10;;
5054;SDS011;13829;48.990;8.346;2023-04-25T04:10:24;4.20;;;3.80;;
5054;SDS011;13829;48.990;8.346;2023-04-25T04:12:53;4.43;;;4.03;;
5054;SDS011;13829;48.990;8.346;2023-04-25T04:15:20;5.60;;;3.97;;
5054;SDS011;13829;48.990;8.346;2023-04-25T04:17:47;3.70;;;3.40;;
5054;SDS011;13829;48.990;8.346;2023-04-25T04:20:15;4.47;;;4.07;;
5054;SDS011;13829;48.990;8.346;2023-04-25T04:22:42;4.77;;;4.03;;
5054;SDS011;13829;48.990;8.346;2023-04-25T04:25:09;4.70;;;4.03;;
5054;SDS011;13829;48.990;8.346;2023-04-25T04:27:36;4.67;;;4.10;;
5054;SDS011;13829;48.990;8.346;2023-04-25T04:30:06;5.13;;;3.83;;
5054;SDS011;13829;48.990;8.346;2023-04-25T04:32:34;5.07;;;4.30;;
5054;SDS011;13829;48.990;8.346;2023-04-25T04:35:02;4.57;;;4.10;;
5054;SDS011;13829;48.990;8.346;2023-04-25T04:37:31;4.43;;;4.03;;
5054;SDS011;13829;48.990;8.346;2023-04-25T04:39:59;5.40;;;4.33;;
5054;SDS011;13829;48.990;8.346;2023-04-25T04:42:30;8.10;;;4.60;;
5054;SDS011;13829;48.990;8.346;2023-04-25T04:44:57;4.30;;;3.90;;
5054;SDS011;13829;48.990;8.346;2023-04-25T04:47:30;5.23;;;4.27;;
5054;SDS011;13829;48.990;8.346;2023-04-25T04:49:59;5.23;;;3.80;;
5054;SDS011;13829;48.990;8.346;2023-04-25T04:52:26;5.20;;;3.90;;
5054;SDS011;13829;48.990;8.346;2023-04-25T04:54:53;5.70;;;4.13;;
5054;SDS011;13829;48.990;8.346;2023-04-25T04:57:21;5.10;;;4.07;;
5054;SDS011;13829;48.990;8.346;2023-04-25T04:59:48;4.70;;;4.00;;
5054;SDS011;13829;48.990;8.346;2023-04-25T05:02:18;4.77;;;3.97;;
5054;SDS011;13829;48.990;8.346;2023-04-25T05:04:47;5.30;;;3.97;;
5054;SDS011;13829;48.990;8.346;2023-04-25T05:07:15;4.07;;;3.63;;
5054;SDS011;13829;48.990;8.346;2023-04-25T05:09:42;4.53;;;3.97;;
5054;SDS011;13829;48.990;8.346;2023-04-25T05:12:10;4.80;;;4.17;;
5054;SDS011;13829;48.990;8.346;2023-04-25T05:14:37;6.53;;;3.90;;
5054;SDS011;13829;48.990;8.346;2023-04-25T05:17:05;5.47;;;3.87;;
5054;SDS011;13829;48.990;8.346;2023-04-25T05:19:33;4.30;;;3.90;;
5054;SDS011;13829;48.990;8.346;2023-04-25T05:22:02;3.87;;;3.47;;
5054;SDS011;13829;48.990;8.346;2023-04-25T05:24:30;4.20;;;3.80;;
5054;SDS011;13829;48.990;8.346;2023-04-25T05:26:57;4.10;;;3.57;;
5054;SDS011;13829;48.990;8.346;2023-04-25T05:29:24;6.23;;;3.90;;
5054;SDS011;13829;48.990;8.346;2023-04-25T05:31:51;7.20;;;4.63;;
5054;SDS011;13829;48.990;8.346;2023-04-25T05:34:18;5.97;;;4.20;;
5054;SDS011;13829;48.990;8.346;2023-04-25T05:36:45;4.20;;;3.80;;
5054;SDS011;13829;48.990;8.346;2023-04-25T05:39:15;5.03;;;4.00;;
5054;SDS011;13829;48.990;8.346;2023-04-25T05:41:42;4.40;;;4.00;;
5054;SDS011;13829;48.990;8.346;2023-04-25T05:44:10;5.20;;;4.00;;
5054;SDS011;13829;48.990;8.346;2023-04-25T05:46:37;5.47;;;4.70;;
5054;SDS011;13829;48.990;8.346;2023-04-25T05:49:04;5.50;;;4.77;;
5054;SDS011;13829;48.990;8.346;2023-04-25T05:51:31;5.10;;;4.60;;
5054;SDS011;13829;48.990;8.346;2023-04-25T05:53:58;4.73;;;4.23;;
5054;SDS011;13829;48.990;8.346;2023-04-25T05:56:26;5.67;;;4.90;;
5054;SDS011;13829;48.990;8.346;2023-04-25T05:58:53;5.00;;;4.33;;
5054;SDS011;13829;48.990;8.346;2023-04-25T06:01:21;5.20;;;4.70;;
5054;SDS011;13829;48.990;8.346;2023-04-25T06:03:48;4.93;;;4.43;;
5054;SDS011;13829;48.990;8.346;2023-04-25T06:06:16;5.20;;;4.70;;
5054;SDS011;13829;48.990;8.346;2023-04-25T06:08:43;5.43;;;4.70;;
5054;SDS011;13829;48.990;8.346;2023-04-25T06:11:10;6.13;;;4.47;;
5054;SDS011;13829;48.990;8.346;2023-04-25T06:13:39;5.67;;;4.87;;
5054;SDS011;13829;48.990;8.346;2023-04-25T06:16:06;5.73;;;5.13;;
5054;SDS011;13829;48.990;8.346;2023-04-25T06:18:33;12.60;;;9.53;;
5054;SDS011;13829;48.990;8.346;2023-04-25T06:21:00;8.20;;;6.03;;
5054;SDS011;13829;48.990;8.346;2023-04-25T06:23:27;8.30;;;6.00;;
5054;SDS011;13829;48.990;8.346;2023-04-25T06:25:54;5.93;;;4.70;;
5054;SDS011;13829;48.990;8.346;2023-04-25T06:28:21;5.03;;;4.30;;
5054;SDS011;13829;48.990;8.346;2023-04-25T06:30:50;4.40;;;4.00;;
5054;SDS011;13829;48.990;8.346;2023-04-25T06:33:17;6.83;;;4.87;;
5054;SDS011;13829;48.990;8.346;2023-04-25T06:35:45;5.17;;;4.67;;
5054;SDS011;13829;48.990;8.346;2023-04-25T06:38:12;5.43;;;4.80;;
5054;SDS011;13829;48.990;8.346;2023-04-25T06:40:39;6.33;;;4.97;;
5054;SDS011;13829;48.990;8.346;2023-04-25T06:43:06;5.43;;;4.83;;
5054;SDS011;13829;48.990;8.346;2023-04-25T06:45:33;5.23;;;4.73;;
5054;SDS011;13829;48.990;8.346;2023-04-25T06:48:01;5.93;;;4.93;;
5054;SDS011;13829;48.990;8.346;2023-04-25T06:50:29;5.10;;;4.60;;
5054;SDS011;13829;48.990;8.346;2023-04-25T06:52:56;5.23;;;4.73;;
5054;SDS011;13829;48.990;8.346;2023-04-25T06:55:23;5.27;;;4.53;;
5054;SDS011;13829;48.990;8.346;2023-04-25T06:57:50;5.87;;;5.37;;
5054;SDS011;13829;48.990;8.346;2023-04-25T07:00:17;6.10;;;4.93;;
5054;SDS011;13829;48.990;8.346;2023-04-25T07:02:45;4.67;;;4.27;;
5054;SDS011;13829;48.990;8.346;2023-04-25T07:05:14;5.50;;;4.77;;
5054;SDS011;13829;48.990;8.346;2023-04-25T07:07:41;5.73;;;5.10;;
5054;SDS011;13829;48.990;8.346;2023-04-25T07:10:08;6.53;;;5.50;;
5054;SDS011;13829;48.990;8.346;2023-04-25T07:12:35;5.30;;;4.80;;
5054;SDS011;13829;48.990;8.346;2023-04-25T07:15:02;5.50;;;5.00;;
5054;SDS011;13829;48.990;8.346;2023-04-25T07:17:33;5.67;;;4.87;;
5054;SDS011;13829;48.990;8.346;2023-04-25T07:20:00;6.70;;;5.00;;
5054;SDS011;13829;48.990;8.346;2023-04-25T07:22:29;5.43;;;4.93;;
5054;SDS011;13829;48.990;8.346;2023-04-25T07:24:56;6.57;;;5.00;;
5054;SDS011;13829;48.990;8.346;2023-04-25T07:27:23;6.13;;;5.53;;
5054;SDS011;13829;48.990;8.346;2023-04-25T07:29:50;5.90;;;4.97;;
5054;SDS011;13829;48.990;8.346;2023-04-25T07:32:18;5.43;;;4.93;;
5054;SDS011;13829;48.990;8.346;2023-04-25T07:34:45;5.67;;;4.90;;
5054;SDS011;13829;48.990;8.346;2023-04-25T07:37:12;5.83;;;5.20;;
5054;SDS011;13829;48.990;8.346;2023-04-25T07:39:41;6.37;;;5.77;;
5054;SDS011;13829;48.990;8.346;2023-04-25T07:42:08;5.63;;;4.93;;
5054;SDS011;13829;48.990;8.346;2023-04-25T07:44:35;6.47;;;5.53;;
5054;SDS011;13829;48.990;8.346;2023-04-25T07:47:04;6.33;;;5.73;;
5054;SDS011;13829;48.990;8.346;2023-04-25T07:49:32;6.43;;;5.83;;
5054;SDS011;13829;48.990;8.346;2023-04-25T07:51:59;6.10;;;5.50;;
5054;SDS011;13829;48.990;8.346;2023-04-25T07:54:27;6.77;;;5.53;;
5054;SDS011;13829;48.990;8.346;2023-04-25T07:56:56;6.97;;;6.27;;
5054;SDS011;13829;48.990;8.346;2023-04-25T07:59:23;9.10;;;7.73;;
5054;SDS011;13829;48.990;8.346;2023-04-25T08:01:50;8.53;;;7.27;;
5054;SDS011;13829;48.990;8.346;2023-04-25T08:04:17;8.43;;;7.40;;
5054;SDS011;13829;48.990;8.346;2023-04-25T08:06:44;8.33;;;7.40;;
5054;SDS011;13829;48.990;8.346;2023-04-25T08:09:12;7.67;;;6.63;;
5054;SDS011;13829;48.990;8.346;2023-04-25T08:11:40;9.97;;;7.93;;
5054;SDS011;13829;48.990;8.346;2023-04-25T08:14:09;8.87;;;7.80;;
5054;SDS011;13829;48.990;8.346;2023-04-25T08:16:38;8.17;;;7.37;;
5054;SDS011;13829;48.990;8.346;2023-04-25T08:19:05;8.10;;;6.73;;
5054;SDS011;13829;48.990;8.346;2023-04-25T08:21:32;9.27;;;7.40;;
5054;SDS011;13829;48.990;8.346;2023-04-25T08:23:59;7.93;;;7.13;;
5054;SDS011;13829;48.990;8.346;2023-04-25T08:26:28;8.63;;;6.63;;
5054;SDS011;13829;48.990;8.346;2023-04-25T08:28:55;7.70;;;6.90;;
5054;SDS011;13829;48.990;8.346;2023-04-25T08:31:24;8.70;;;7.00;;
5054;SDS011;13829;48.990;8.346;2023-04-25T08:33:53;10.03;;;7.77;;
5054;SDS011;13829;48.990;8.346;2023-04-25T08:36:20;8.43;;;7.50;;
5054;SDS011;13829;48.990;8.346;2023-04-25T08:38:49;8.10;;;7.30;;
5054;SDS011;13829;48.990;8.346;2023-04-25T08:41:18;9.70;;;8.03;;
5054;SDS011;13829;48.990;8.346;2023-04-25T08:43:47;10.70;;;8.33;;
5054;SDS011;13829;48.990;8.346;2023-04-25T08:46:18;9.13;;;8.10;;
5054;SDS011;13829;48.990;8.346;2023-04-25T08:48:47;9.90;;;7.73;;
5054;SDS011;13829;48.990;8.346;2023-04-25T08:51:22;9.20;;;7.93;;
5054;SDS011;13829;48.990;8.346;2023-04-25T08:53:50;10.30;;;8.20;;
5054;SDS011;13829;48.990;8.346;2023-04-25T08:56:18;11.93;;;8.23;;
5054;SDS011;13829;48.990;8.346;2023-04-25T08:58:48;10.50;;;7.93;;
5054;SDS011;13829;48.990;8.346;2023-04-25T09:01:16;9.27;;;8.33;;
5054;SDS011;13829;48.990;8.346;2023-04-25T09:03:43;10.90;;;8.50;;
5054;SDS011;13829;48.990;8.346;2023-04-25T09:06:13;9.23;;;7.67;;
5054;SDS011;13829;48.990;8.346;2023-04-25T09:08:42;8.67;;;7.77;;
5054;SDS011;13829;48.990;8.346;2023-04-25T09:11:09;10.10;;;8.57;;
5054;SDS011;13829;48.990;8.346;2023-04-25T09:13:36;10.33;;;8.10;;
5054;SDS011;13829;48.990;8.346;2023-04-25T09:16:03;8.60;;;7.70;;
5054;SDS011;13829;48.990;8.346;2023-04-25T09:18:31;9.40;;;8.07;;
5054;SDS011;13829;48.990;8.346;2023-04-25T09:21:04;9.30;;;8.17;;
5054;SDS011;13829;48.990;8.346;2023-04-25T09:23:39;9.47;;;8.30;;
5054;SDS011;13829;48.990;8.346;2023-04-25T09:26:13;11.63;;;9.53;;
5054;SDS011;13829;48.990;8.346;2023-04-25T09:28:42;12.30;;;8.73;;
5054;SDS011;13829;48.990;8.346;2023-04-25T09:31:10;10.90;;;7.87;;
5054;SDS011;13829;48.990;8.346;2023-04-25T09:33:38;8.30;;;7.47;;
5054;SDS011;13829;48.990;8.346;2023-04-25T09:36:07;9.73;;;8.13;;
5054;SDS011;13829;48.990;8.346;2023-04-25T09:38:41;9.93;;;8.20;;
5054;SDS011;13829;48.990;8.346;2023-04-25T09:41:10;10.37;;;8.07;;
5054;SDS011;13829;48.990;8.346;2023-04-25T09:43:38;11.30;;;8.90;;
5054;SDS011;13829;48.990;8.346;2023-04-25T09:46:07;12.40;;;8.97;;
5054;SDS011;13829;48.990;8.346;2023-04-25T09:48:36;14.77;;;11.57;;
5054;SDS011;13829;48.990;8.346;2023-04-25T09:51:05;17.83;;;11.33;;
5054;SDS011;13829;48.990;8.346;2023-04-25T09:53:34;13.10;;;10.70;;
5054;SDS011;13829;48.990;8.346;2023-04-25T09:56:05;16.20;;;12.30;;
5054;SDS011;13829;48.990;8.346;2023-04-25T09:58:34;16.10;;;12.00;;
5054;SDS011;13829;48.990;8.346;2023-04-25T10:01:04;22.37;;;16.60;;
5054;SDS011;13829;48.990;8.346;2023-04-25T10:03:34;9.37;;;6.60;;
5054;SDS011;13829;48.990;8.346;2023-04-25T10:06:07;7.40;;;6.70;;
5054;SDS011;13829;48.990;8.346;2023-04-25T10:08:38;8.40;;;7.13;;
5054;SDS011;13829;48.990;8.346;2023-04-25T10:11:07;7.73;;;6.93;;
5054;SDS011;13829;48.990;8.346;2023-04-25T10:13:35;8.20;;;7.27;;
5054;SDS011;13829;48.990;8.346;2023-04-25T10:16:03;9.17;;;7.70;;
5054;SDS011;13829;48.990;8.346;2023-04-25T10:18:31;10.70;;;9.30;;
5054;SDS011;13829;48.990;8.346;2023-04-25T10:20:59;12.87;;;9.47;;
5054;SDS011;13829;48.990;8.346;2023-04-25T10:23:30;14.97;;;11.57;;
5054;SDS011;13829;48.990;8.346;2023-04-25T10:25:59;21.93;;;14.33;;
5054;SDS011;13829;48.990;8.346;2023-04-25T10:28:28;20.30;;;12.70;;
5054;SDS011;13829;48.990;8.346;2023-04-25T10:30:59;12.80;;;9.87;;
5054;SDS011;13829;48.990;8.346;2023-04-25T10:33:34;10.43;;;9.33;;
5054;SDS011;13829;48.990;8.346;2023-04-25T10:36:09;14.33;;;9.23;;
5054;SDS011;13829;48.990;8.346;2023-04-25T10:38:38;13.10;;;10.47;;
5054;SDS011;13829;48.990;8.346;2023-04-25T10:41:06;11.70;;;10.10;;
5054;SDS011;13829;48.990;8.346;2023-04-25T10:43:38;14.03;;;11.10;;
5054;SDS011;13829;48.990;8.346;2023-04-25T10:46:21;15.83;;;11.53;;
5054;SDS011;13829;48.990;8.346;2023-04-25T10:48:50;14.00;;;10.83;;
5054;SDS011;13829;48.990;8.346;2023-04-25T10:51:21;15.27;;;10.90;;
5054;SDS011;13829;48.990;8.346;2023-04-25T10:53:57;14.43;;;11.33;;
5054;SDS011;13829;48.990;8.346;2023-04-25T10:56:26;15.33;;;10.40;;
5054;SDS011;13829;48.990;8.346;2023-04-25T10:59:06;12.73;;;10.30;;
5054;SDS011;13829;48.990;8.346;2023-04-25T11:01:36;13.17;;;10.63;;
5054;SDS011;13829;48.990;8.346;2023-04-25T11:04:05;15.83;;;11.37;;
5054;SDS011;13829;48.990;8.346;2023-04-25T11:06:46;13.33;;;10.43;;
5054;SDS011;13829;48.990;8.346;2023-04-25T11:09:28;12.73;;;10.43;;
5054;SDS011;13829;48.990;8.346;2023-04-25T11:11:56;13.90;;;10.80;;
5054;SDS011;13829;48.990;8.346;2023-04-25T11:14:26;12.37;;;9.93;;
5054;SDS011;13829;48.990;8.346;2023-04-25T11:16:53;10.60;;;9.30;;
5054;SDS011;13829;48.990;8.346;2023-04-25T11:19:21;8.63;;;7.70;;
5054;SDS011;13829;48.990;8.346;2023-04-25T11:21:49;10.77;;;8.10;;
5054;SDS011;13829;48.990;8.346;2023-04-25T11:24:16;9.93;;;7.93;;
5054;SDS011;13829;48.990;8.346;2023-04-25T11:26:46;9.57;;;8.20;;
5054;SDS011;13829;48.990;8.346;2023-04-25T11:29:13;10.17;;;7.87;;
5054;SDS011;13829;48.990;8.346;2023-04-25T11:31:44;11.13;;;8.63;;
5054;SDS011;13829;48.990;8.346;2023-04-25T11:34:11;11.23;;;9.03;;
5054;SDS011;13829;48.990;8.346;2023-04-25T11:36:43;10.60;;;8.83;;
5054;SDS011;13829;48.990;8.346;2023-04-25T11:39:12;10.57;;;8.83;;
5054;SDS011;13829;48.990;8.346;2023-04-25T11:41:40;11.40;;;9.17;;
5054;SDS011;13829;48.990;8.346;2023-04-25T11:44:08;12.13;;;8.43;;
5054;SDS011;13829;48.990;8.346;2023-04-25T11:46:35;8.73;;;7.83;;
5054;SDS011;13829;48.990;8.346;2023-04-25T11:49:03;9.30;;;7.63;;
5054;SDS011;13829;48.990;8.346;2023-04-25T11:51:37;8.93;;;7.17;;
5054;SDS011;13829;48.990;8.346;2023-04-25T11:54:05;8.80;;;7.90;;
5054;SDS011;13829;48.990;8.346;2023-04-25T11:56:33;11.43;;;8.00;;
5054;SDS011;13829;48.990;8.346;2023-04-25T11:59:00;9.53;;;7.20;;
5054;SDS011;13829;48.990;8.346;2023-04-25T12:01:30;11.77;;;7.87;;
5054;SDS011;13829;48.990;8.346;2023-04-25T12:03:58;9.97;;;8.10;;
5054;SDS011;13829;48.990;8.346;2023-04-25T12:06:38;10.10;;;7.97;;
5054;SDS011;13829;48.990;8.346;2023-04-25T12:09:07;9.27;;;6.47;;
5054;SDS011;13829;48.990;8.346;2023-04-25T12:11:40;8.47;;;5.73;;
5054;SDS011;13829;48.990;8.346;2023-04-25T12:14:08;6.77;;;5.27;;
5054;SDS011;13829;48.990;8.346;2023-04-25T12:16:45;7.73;;;6.10;;
5054;SDS011;13829;48.990;8.346;2023-04-25T12:19:15;6.63;;;4.97;;
5054;SDS011;13829;48.990;8.346;2023-04-25T12:21:46;8.13;;;4.97;;
5054;SDS011;13829;48.990;8.346;2023-04-25T12:24:14;5.33;;;4.80;;
5054;SDS011;13829;48.990;8.346;2023-04-25T12:26:48;6.80;;;5.83;;
5054;SDS011;13829;48.990;8.346;2023-04-25T12:29:18;7.67;;;5.40;;
5054;SDS011;13829;48.990;8.346;2023-04-25T12:31:47;6.87;;;5.27;;
5054;SDS011;13829;48.990;8.346;2023-04-25T12:34:20;5.83;;;5.13;;
5054;SDS011;13829;48.990;8.346;2023-04-25T12:36:48;5.40;;;4.77;;
5054;SDS011;13829;48.990;8.346;2023-04-25T12:39:17;4.50;;;4.07;;
5054;SDS011;13829;48.990;8.346;2023-04-25T12:41:47;4.80;;;3.80;;
5054;SDS011;13829;48.990;8.346;2023-04-25T12:44:14;3.70;;;3.33;;
5054;SDS011;13829;48.990;8.346;2023-04-25T12:46:42;5.60;;;4.30;;
5054;SDS011;13829;48.990;8.346;2023-04-25T12:49:09;4.03;;;3.63;;
5054;SDS011;13829;48.990;8.346;2023-04-25T12:51:38;4.37;;;3.97;;
5054;SDS011;13829;48.990;8.346;2023-04-25T12:54:07;5.40;;;4.47;;
5054;SDS011;13829;48.990;8.346;2023-04-25T12:56:35;4.70;;;4.20;;
5054;SDS011;13829;48.990;8.346;2023-04-25T12:59:02;4.97;;;3.87;;
5054;SDS011;13829;48.990;8.346;2023-04-25T13:01:29;3.63;;;3.03;;
5054;SDS011;13829;48.990;8.346;2023-04-25T13:03:57;3.50;;;3.20;;
5054;SDS011;13829;48.990;8.346;2023-04-25T13:06:24;4.90;;;2.90;;
5054;SDS011;13829;48.990;8.346;2023-04-25T13:08:52;5.43;;;3.20;;
5054;SDS011;13829;48.990;8.346;2023-04-25T13:11:19;6.63;;;3.70;;
5054;SDS011;13829;48.990;8.346;2023-04-25T13:13:46;3.93;;;3.13;;
5054;SDS011;13829;48.990;8.346;2023-04-25T13:16:13;4.60;;;3.37;;
5054;SDS011;13829;48.990;8.346;2023-04-25T13:18:40;5.60;;;3.10;;
5054;SDS011;13829;48.990;8.346;2023-04-25T13:21:08;3.30;;;3.00;;
5054;SDS011;13829;48.990;8.346;2023-04-25T13:23:36;4.80;;;3.57;;
5054;SDS011;13829;48.990;8.346;2023-04-25T13:26:05;3.20;;;2.90;;
5054;SDS011;13829;48.990;8.346;2023-04-25T13:28:32;3.70;;;3.10;;
5054;SDS011;13829;48.990;8.346;2023-04-25T13:30:59;3.60;;;2.60;;
5054;SDS011;13829;48.990;8.346;2023-04-25T13:33:26;9.37;;;2.80;;
5054;SDS011;13829;48.990;8.346;2023-04-25T13:35:53;3.20;;;2.80;;
5054;SDS011;13829;48.990;8.346;2023-04-25T13:38:22;4.77;;;2.60;;
5054;SDS011;13829;48.990;8.346;2023-04-25T13:40:50;5.77;;;2.80;;
5054;SDS011;13829;48.990;8.346;2023-04-25T13:43:20;3.80;;;2.87;;
5054;SDS011;13829;48.990;8.346;2023-04-25T13:45:47;3.50;;;2.50;;
5054;SDS011;13829;48.990;8.346;2023-04-25T13:48:15;2.70;;;2.50;;
5054;SDS011;13829;48.990;8.346;2023-04-25T13:50:42;2.93;;;2.37;;
5054;SDS011;13829;48.990;8.346;2023-04-25T13:53:09;2.90;;;2.60;;
5054;SDS011;13829;48.990;8.346;2023-04-25T13:55:37;4.83;;;2.77;;
5054;SDS011;13829;48.990;8.346;2023-04-25T13:58:04;4.53;;;2.90;;
5054;SDS011;13829;48.990;8.346;2023-04-25T14:00:34;3.97;;;2.73;;
5054;SDS011;13829;48.990;8.346;2023-04-25T14:03:03;3.47;;;2.63;;
5054;SDS011;13829;48.990;8.346;2023-04-25T14:05:32;3.17;;;2.30;;
5054;SDS011;13829;48.990;8.346;2023-04-25T14:08:03;2.47;;;2.20;;
5054;SDS011;13829;48.990;8.346;2023-04-25T14:10:32;3.30;;;3.00;;
5054;SDS011;13829;48.990;8.346;2023-04-25T14:13:00;3.93;;;2.90;;
5054;SDS011;13829;48.990;8.346;2023-04-25T14:15:28;4.27;;;3.00;;
5054;SDS011;13829;48.990;8.346;2023-04-25T14:17:58;3.90;;;2.90;;
5054;SDS011;13829;48.990;8.346;2023-04-25T14:20:25;4.27;;;2.93;;
5054;SDS011;13829;48.990;8.346;2023-04-25T14:22:54;5.07;;;3.00;;
5054;SDS011;13829;48.990;8.346;2023-04-25T14:25:23;3.50;;;2.70;;
5054;SDS011;13829;48.990;8.346;2023-04-25T14:27:50;3.10;;;2.73;;
5054;SDS011;13829;48.990;8.346;2023-04-25T14:30:17;2.80;;;2.50;;
5054;SDS011;13829;48.990;8.346;2023-04-25T14:32:46;3.60;;;3.23;;
5054;SDS011;13829;48.990;8.346;2023-04-25T14:35:15;4.00;;;3.13;;
5054;SDS011;13829;48.990;8.346;2023-04-25T14:37:43;6.83;;;3.40;;
5054;SDS011;13829;48.990;8.346;2023-04-25T14:40:10;4.10;;;3.13;;
5054;SDS011;13829;48.990;8.346;2023-04-25T14:42:40;3.43;;;3.13;;
5054;SDS011;13829;48.990;8.346;2023-04-25T14:45:08;3.87;;;3.00;;
5054;SDS011;13829;48.990;8.346;2023-04-25T14:47:36;4.73;;;3.10;;
5054;SDS011;13829;48.990;8.346;2023-04-25T14:50:05;7.30;;;3.70;;
5054;SDS011;13829;48.990;8.346;2023-04-25T14:52:35;4.03;;;3.20;;
5054;SDS011;13829;48.990;8.346;2023-04-25T14:55:02;3.93;;;2.93;;
5054;SDS011;13829;48.990;8.346;2023-04-25T14:57:34;8.17;;;3.13;;
5054;SDS011;13829;48.990;8.346;2023-04-25T15:00:05;4.63;;;3.10;;
5054;SDS011;13829;48.990;8.346;2023-04-25T15:02:41;4.30;;;3.20;;
5054;SDS011;13829;48.990;8.346;2023-04-25T15:05:08;6.00;;;3.53;;